Time;durP1;ratioP1;P1;durP2;ratioP2;P2;SDS_P1;SDS_P2;PMS_P1;PMS_P2;Temp;Humidity;BMP_temperature;BMP_pressure;BME280_temperature;BME280_humidity;BME280_pressure;Samples;Min_cycle;Max_cycle;Signal;HPM_P1;HPM_P2
2023/04/21 00:01:20;;;;;;;19.95;6.10;;;7.70;99.90;;;6.26;89.37;101942.84;5030684;28;20033;-75
2023/04/21 00:03:46;;;;;;;13.05;4.85;;;7.70;99.90;;;6.21;88.79;101940.28;5012155;28;20124;-74
2023/04/21 00:06:12;;;;;;;19.02;6.30;;;7.70;99.90;;;6.23;88.81;101933.28;5016010;28;20033;-75
2023/04/21 00:08:41;;;;;;;18.85;5.70;;;7.60;99.90;;;6.20;88.83;101928.09;5020363;28;20051;-75
2023/04/21 00:11:13;;;;;;;15.75;5.22;;;7.60;99.90;;;6.17;89.14;101928.13;5013797;28;20030;-75
2023/04/21 00:13:39;;;;;;;21.77;6.65;;;7.60;99.90;;;6.19;88.77;101928.13;5015115;28;20528;-76
2023/04/21 00:16:06;;;;;;;17.30;5.57;;;7.60;99.90;;;6.10;88.49;101929.06;4997910;28;20108;-74
2023/04/21 00:18:32;;;;;;;21.15;6.05;;;7.60;99.90;;;6.09;89.06;101922.09;5032210;28;20566;-75
2023/04/21 00:21:05;;;;;;;15.85;6.50;;;7.60;99.90;;;6.09;88.79;101924.69;5026798;28;20036;-75
2023/04/21 00:23:31;;;;;;;15.02;5.22;;;7.50;99.90;;;6.07;88.48;101921.22;5014116;28;20152;-74
2023/04/21 00:25:58;;;;;;;22.33;6.22;;;7.50;99.90;;;6.10;88.26;101921.22;5010993;28;20064;-74
2023/04/21 00:28:24;;;;;;;18.85;5.68;;;7.50;99.90;;;6.07;88.61;101927.34;5015074;28;20037;-74
2023/04/21 00:30:53;;;;;;;19.90;5.78;;;7.50;99.90;;;6.06;88.42;101922.97;5018707;28;20037;-76
2023/04/21 00:33:19;;;;;;;16.20;6.47;;;7.50;99.90;;;6.10;88.21;101916.00;4997221;28;20130;-75
2023/04/21 00:35:45;;;;;;;12.57;4.45;;;7.50;99.90;;;6.06;88.06;101912.53;5029817;28;20116;-75
2023/04/21 00:38:11;;;;;;;23.77;6.28;;;7.60;99.90;;;6.12;87.67;101912.47;5032313;28;20090;-75
2023/04/21 00:40:37;;;;;;;16.35;5.88;;;7.60;99.90;;;6.10;87.82;101913.38;5001223;28;20051;-75
2023/04/21 00:43:08;;;;;;;14.80;5.60;;;7.50;99.90;;;6.10;87.62;101916.00;5003420;28;21592;-75
2023/04/21 00:45:34;;;;;;;15.80;4.57;;;7.50;99.90;;;6.07;87.30;101905.53;4997228;28;20513;-75
2023/04/21 00:48:00;;;;;;;18.30;5.65;;;7.50;99.90;;;6.07;86.99;101905.53;5029960;28;20569;-75
2023/04/21 00:50:27;;;;;;;13.27;4.30;;;7.50;99.90;;;6.02;87.04;101907.34;5010137;28;20056;-75
2023/04/21 00:52:53;;;;;;;19.85;5.15;;;7.50;99.90;;;6.06;86.93;101903.81;5010710;28;20035;-74
2023/04/21 00:55:19;;;;;;;8.27;3.28;;;7.50;99.90;;;6.07;86.77;101902.91;5036040;28;20041;-74
2023/04/21 00:57:45;;;;;;;19.38;6.13;;;7.50;99.90;;;6.12;86.62;101906.38;5007835;28;20123;-75
2023/04/21 01:00:12;;;;;;;15.13;5.63;;;7.50;99.90;;;6.08;86.65;101907.28;5029256;28;20508;-75
2023/04/21 01:02:39;;;;;;;12.57;5.25;;;7.50;99.90;;;6.09;86.67;101904.66;5010064;28;20033;-75
2023/04/21 01:05:09;;;;;;;22.90;5.97;;;7.50;99.90;;;6.08;86.29;101907.28;5021030;28;20039;-75
2023/04/21 01:07:35;;;;;;;14.48;5.60;;;7.50;99.90;;;6.01;86.73;101900.38;5007007;28;20033;-75
2023/04/21 01:10:02;;;;;;;12.82;5.40;;;7.50;99.90;;;5.99;86.63;101907.38;5018663;28;20033;-74
2023/04/21 01:12:28;;;;;;;16.88;4.65;;;7.50;99.90;;;5.99;86.54;101908.25;5018468;28;20040;-75
2023/04/21 01:14:54;;;;;;;17.58;5.75;;;7.50;99.90;;;6.02;86.82;101904.72;5010628;28;20444;-75
2023/04/21 01:17:20;;;;;;;14.35;5.57;;;7.50;99.90;;;6.06;86.39;101909.06;4988796;28;20120;-77
2023/04/21 01:19:46;;;;;;;19.15;4.68;;;7.50;99.90;;;6.03;86.53;101896.00;5027139;28;20055;-75
2023/04/21 01:22:14;;;;;;;12.65;4.10;;;7.50;99.90;;;5.97;86.39;101896.06;5013288;28;20034;-76
2023/04/21 01:24:47;;;;;;;15.02;5.07;;;7.50;99.90;;;6.01;86.44;101897.78;5012499;28;20041;-75
2023/04/21 01:27:17;;;;;;;12.73;4.00;;;7.50;99.90;;;6.03;85.73;101898.63;5018091;28;20540;-75
2023/04/21 01:29:45;;;;;;;21.95;5.03;;;7.50;99.90;;;6.01;86.00;101892.53;5020399;28;20509;-75
2023/04/21 01:32:25;;;;;;;15.50;5.57;;;7.50;99.90;;;6.06;85.80;101893.34;5006021;28;20041;-75
2023/04/21 01:34:51;;;;;;;24.63;5.63;;;7.50;99.90;;;6.01;85.43;101895.16;5020815;28;20025;-75
2023/04/21 01:37:21;;;;;;;20.67;5.50;;;7.40;99.90;;;6.01;85.69;101889.94;5011549;28;20047;-74
2023/04/21 01:39:53;;;;;;;18.42;5.13;;;7.50;99.90;;;6.02;85.59;101889.03;5002295;28;20094;-74
2023/04/21 01:42:23;;;;;;;12.05;4.50;;;7.40;99.90;;;5.96;85.70;101892.56;4996969;28;20158;-75
2023/04/21 01:44:52;;;;;;;19.50;5.07;;;7.40;99.90;;;5.96;85.59;101882.09;4989725;28;20045;-74
2023/04/21 01:47:19;;;;;;;15.57;5.25;;;7.40;99.90;;;5.98;85.68;101892.56;4968696;28;20525;-75
2023/04/21 01:49:45;;;;;;;16.42;5.55;;;7.40;99.90;;;5.98;85.35;101895.16;5021977;28;20086;-75
2023/04/21 01:52:16;;;;;;;10.60;4.13;;;7.40;99.90;;;5.93;84.92;101882.09;4988325;28;20033;-76
2023/04/21 01:54:42;;;;;;;7.88;3.45;;;7.40;99.90;;;5.93;84.59;101882.09;5016900;28;20042;-75
2023/04/21 01:57:07;;;;;;;13.25;4.80;;;7.40;99.90;;;6.00;84.61;101888.19;5011362;28;20056;-74
2023/04/21 01:59:33;;;;;;;13.88;4.43;;;7.40;99.90;;;6.00;84.21;101886.44;5030793;28;20504;-75
2023/04/21 02:01:59;;;;;;;12.38;5.20;;;7.40;99.90;;;6.04;84.19;101885.53;5004440;28;20087;-75
2023/04/21 02:04:25;;;;;;;15.48;5.10;;;7.50;99.90;;;6.01;84.25;101885.56;5015273;28;20440;-76
2023/04/21 02:06:53;;;;;;;14.18;5.15;;;7.40;99.90;;;6.02;84.33;101886.41;4992461;28;20053;-76
2023/04/21 02:09:19;;;;;;;18.02;5.38;;;7.50;99.90;;;6.01;84.09;101889.94;5009009;28;20048;-75
2023/04/21 02:11:45;;;;;;;13.40;5.30;;;7.40;99.90;;;6.01;84.11;101889.94;5015245;28;20025;-75
2023/04/21 02:14:11;;;;;;;13.73;5.18;;;7.40;99.90;;;6.01;83.84;101890.78;5030664;28;20028;-75
2023/04/21 02:16:36;;;;;;;20.67;5.47;;;7.30;99.90;;;5.95;84.11;101891.69;4995201;28;20052;-75
2023/04/21 02:19:02;;;;;;;20.35;5.60;;;7.30;99.90;;;5.91;84.32;101886.47;5008373;28;20029;-75
2023/04/21 02:21:28;;;;;;;14.25;4.97;;;7.30;99.90;;;5.91;84.13;101884.72;5004821;28;20559;-75
2023/04/21 02:23:54;;;;;;;25.48;5.82;;;7.30;99.90;;;5.83;84.60;101885.69;4994304;28;20659;-76
2023/04/21 02:26:20;;;;;;;18.42;5.65;;;7.20;99.90;;;5.70;84.38;101880.56;5021772;28;20052;-75
2023/04/21 02:28:49;;;;;;;17.75;5.30;;;7.00;99.90;;;5.60;84.92;101881.50;5011797;28;20520;-75
2023/04/21 02:31:17;;;;;;;20.27;5.60;;;7.00;99.90;;;5.53;85.16;101877.22;5025450;28;20108;-75
2023/04/21 02:33:44;;;;;;;21.08;6.00;;;6.90;99.90;;;5.40;85.90;101872.94;5028303;28;20082;-77
2023/04/21 02:36:10;;;;;;;21.45;5.57;;;6.80;99.90;;;5.32;86.31;101875.63;5002831;28;20401;-75
2023/04/21 02:38:36;;;;;;;19.75;5.35;;;;;;;5.26;87.06;101873.91;5015911;28;20037;-75
2023/04/21 02:41:02;;;;;;;20.83;6.63;;;6.70;99.90;;;5.22;87.56;101873.94;5032713;28;20034;-75
2023/04/21 02:43:28;;;;;;;18.42;5.70;;;6.70;99.90;;;5.21;88.26;101869.59;4989166;28;20116;-75
2023/04/21 02:45:54;;;;;;;25.35;5.75;;;6.60;99.90;;;5.18;88.70;101874.81;4997341;28;20039;-75
2023/04/21 02:48:21;;;;;;;11.63;4.85;;;6.60;99.90;;;5.17;89.12;101873.97;5011172;28;20079;-75
2023/04/21 02:50:49;;;;;;;14.40;4.63;;;6.60;99.90;;;5.13;89.75;101878.31;5003594;28;20033;-74
2023/04/21 02:53:15;;;;;;;16.30;5.03;;;6.60;99.90;;;5.20;89.71;101878.28;5006906;28;20025;-75
2023/04/21 02:55:42;;;;;;;20.30;5.32;;;6.60;99.90;;;5.19;89.86;101873.97;5014283;28;20087;-74
2023/04/21 02:58:09;;;;;;;11.80;5.30;;;6.60;99.90;;;5.17;89.87;101871.34;5016760;28;20034;-74
2023/04/21 03:00:35;;;;;;;15.98;5.80;;;6.60;99.90;;;5.15;90.23;101870.50;5021137;28;20064;-77
2023/04/21 03:03:01;;;;;;;18.38;5.57;;;6.60;99.90;;;5.11;90.58;101869.63;5025455;28;20060;-75
2023/04/21 03:05:27;;;;;;;18.17;4.93;;;6.50;99.90;;;5.06;91.28;101873.16;5008642;28;20021;-74
2023/04/21 03:07:53;;;;;;;20.73;5.43;;;6.50;99.90;;;5.07;91.57;101867.91;5028365;28;20051;-77
2023/04/21 03:10:19;;;;;;;17.48;5.20;;;6.60;99.90;;;5.10;91.45;101867.91;5007983;28;20505;-76
2023/04/21 03:12:45;;;;;;;13.70;4.57;;;6.50;99.90;;;5.10;91.75;101860.06;5011890;28;20040;-74
2023/04/21 03:15:13;;;;;;;16.77;5.43;;;6.50;99.90;;;5.05;91.60;101866.19;5015178;28;20394;-75
2023/04/21 03:17:39;;;;;;;23.80;6.10;;;6.50;99.90;;;5.00;92.01;101866.22;5002940;28;20111;-77
2023/04/21 03:20:07;;;;;;;25.52;6.05;;;6.40;99.90;;;4.93;93.01;101865.38;4979745;28;20045;-76
2023/04/21 03:22:39;;;;;;;14.77;4.85;;;6.40;99.90;;;4.91;93.46;101861.06;5001728;28;20102;-75
2023/04/21 03:25:06;;;;;;;16.25;4.47;;;6.40;99.90;;;4.87;94.08;101861.94;5020817;28;20082;-75
2023/04/21 03:27:32;;;;;;;19.15;5.60;;;6.40;99.90;;;4.89;94.38;101852.34;5029022;28;20072;-75
2023/04/21 03:29:58;;;;;;;21.90;4.93;;;6.30;99.90;;;4.89;94.68;101852.34;5014661;28;20403;-75
2023/04/21 03:32:24;;;;;;;15.98;5.28;;;6.30;99.90;;;4.88;94.05;101855.81;5004890;28;20115;-77
2023/04/21 03:34:52;;;;;;;21.65;5.53;;;6.30;99.90;;;4.82;94.34;101861.09;5013342;28;20041;-74
2023/04/21 03:37:18;;;;;;;18.65;5.65;;;6.20;99.90;;;4.73;94.69;101860.25;4998994;28;20033;-74
2023/04/21 03:39:44;;;;;;;14.85;5.63;;;6.20;99.90;;;4.72;95.28;101865.47;5031351;28;22293;-75
2023/04/21 03:42:10;;;;;;;14.57;5.97;;;6.10;99.90;;;4.66;95.86;101861.13;4995895;28;20041;-75
2023/04/21 03:44:36;;;;;;;18.67;5.60;;;6.10;99.90;;;4.67;95.95;101867.25;5013669;28;20040;-75
2023/04/21 03:47:04;;;;;;;17.35;5.75;;;6.10;99.90;;;4.62;95.89;101864.66;5014125;28;20041;-77
2023/04/21 03:49:33;;;;;;;23.33;5.63;;;6.10;99.90;;;4.54;97.16;101862.97;4978361;28;20044;-78
2023/04/21 03:51:59;;;;;;;18.05;5.50;;;;;;;4.57;98.04;101863.78;5034924;28;20041;-75
2023/04/21 03:54:25;;;;;;;17.05;5.45;;;6.10;99.90;;;4.57;98.83;101860.31;5023716;28;20043;-74
2023/04/21 03:56:50;;;;;;;19.23;5.75;;;6.10;99.90;;;4.58;99.48;101856.81;5015245;28;20045;-75
2023/04/21 03:59:16;;;;;;;19.52;6.55;;;6.10;99.90;;;4.65;99.15;101856.81;5015068;28;20044;-75
2023/04/21 04:01:42;;;;;;;14.98;5.85;;;6.10;99.90;;;4.69;99.43;101857.69;5021058;28;20040;-75
2023/04/21 04:04:08;;;;;;;19.67;5.60;;;6.20;99.90;;;4.74;99.31;101855.91;5013838;28;20398;-75
2023/04/21 04:06:34;;;;;;;23.08;6.20;;;6.10;99.90;;;4.78;99.08;101856.78;5014039;28;20498;-75
2023/04/21 04:09:03;;;;;;;21.02;5.32;;;6.20;99.90;;;4.79;99.45;101861.09;5020801;28;20045;-75
2023/04/21 04:11:31;;;;;;;18.35;5.70;;;6.20;99.90;;;4.86;99.61;101855.84;4999325;28;20044;-77
2023/04/21 04:13:57;;;;;;;20.55;5.45;;;6.30;99.90;;;4.96;99.31;101854.06;5026314;28;20045;-74
2023/04/21 04:16:23;;;;;;;18.65;6.57;;;6.40;99.90;;;4.99;99.33;101856.66;5003670;28;20172;-75
2023/04/21 04:18:49;;;;;;;17.13;4.70;;;6.40;99.90;;;4.98;98.96;101854.91;5004486;28;20033;-75
2023/04/21 04:21:17;;;;;;;19.25;5.32;;;6.50;99.90;;;5.11;98.74;101855.72;5029215;28;20056;-75
2023/04/21 04:23:44;;;;;;;25.52;6.30;;;6.50;99.90;;;5.19;98.25;101856.53;4980243;28;20040;-75
2023/04/21 04:26:10;;;;;;;19.85;5.53;;;6.50;99.90;;;5.26;98.09;101854.75;5019327;28;20128;-75
2023/04/21 04:28:36;;;;;;;21.20;5.25;;;6.60;99.90;;;5.30;97.97;101854.72;5008746;28;20036;-74
2023/04/21 04:31:01;;;;;;;18.90;4.97;;;6.60;99.90;;;5.29;97.81;101857.34;5019136;28;20049;-75
2023/04/21 04:33:28;;;;;;;19.27;6.05;;;6.70;99.90;;;5.33;97.96;101856.44;5011899;28;20033;-77
2023/04/21 04:35:56;;;;;;;20.63;5.50;;;6.70;99.90;;;5.36;98.39;101853.81;5014152;28;20029;-75
2023/04/21 04:38:22;;;;;;;24.67;6.60;;;6.80;99.90;;;5.53;97.96;101864.16;4998507;28;20032;-74
2023/04/21 04:40:56;;;;;;;17.30;5.53;;;6.80;99.90;;;5.63;97.25;101862.31;4996418;28;20041;-75
2023/04/21 04:43:24;;;;;;;21.88;5.40;;;6.90;99.90;;;6.40;95.70;101872.09;5001553;28;20450;-75
2023/04/21 04:45:50;;;;;;;13.27;4.75;;;7.80;99.90;;;7.65;91.75;101871.31;5022576;28;20030;-75
2023/04/21 04:48:16;;;;;;;16.83;5.18;;;8.50;99.90;;;8.75;86.00;101878.94;5004100;28;20036;-74
2023/04/21 04:50:42;;;;;;;15.98;5.20;;;9.30;99.90;;;9.71;79.91;101880.28;5015679;28;20026;-75
2023/04/21 04:53:08;;;;;;;17.33;4.47;;;9.90;99.90;;;10.41;75.56;101880.22;5028609;28;20517;-75
2023/04/21 04:55:34;;;;;;;14.35;4.32;;;10.50;99.90;;;11.05;72.13;101888.06;5021682;28;20135;-75
2023/04/21 04:58:00;;;;;;;16.55;4.97;;;10.90;99.90;;;11.64;69.81;101885.34;4994852;28;20378;-75
2023/04/21 05:00:27;;;;;;;16.15;3.88;;;11.40;99.90;;;11.96;67.70;101891.34;5003508;28;20722;-75
2023/04/21 05:02:54;;;;;;;15.75;3.78;;;11.60;99.90;;;12.14;66.75;101883.69;5006990;28;20045;-75
2023/04/21 05:05:20;;;;;;;11.90;4.53;;;12.00;99.90;;;13.23;64.22;101888.47;5010972;28;20108;-75
2023/04/21 05:07:47;;;;;;;17.30;4.57;;;12.40;99.90;;;13.50;63.12;101891.00;5019549;28;21166;-75
2023/04/21 05:10:12;;;;;;;15.35;4.10;;;12.70;99.90;;;13.84;61.13;101900.19;4997264;28;20029;-75
2023/04/21 05:12:38;;;;;;;17.63;4.38;;;13.30;99.90;;;15.38;58.54;101920.75;4994229;28;20099;-75
2023/04/21 05:15:05;;;;;;;15.27;4.63;;;13.70;99.90;;;15.61;57.11;101916.97;5027479;28;20540;-75
2023/04/21 05:17:32;;;;;;;10.45;4.00;;;14.00;99.90;;;15.79;56.23;101915.25;5002696;28;20087;-75
2023/04/21 05:19:58;;;;;;;15.88;3.90;;;14.30;99.90;;;16.21;54.93;101924.63;5006711;28;20042;-75
2023/04/21 05:22:25;;;;;;;11.57;3.72;;;14.50;99.90;;;16.47;54.10;101925.94;5018692;28;20422;-75
2023/04/21 05:24:52;;;;;;;18.58;4.22;;;14.50;99.90;;;16.45;53.91;101921.66;4997466;28;20032;-75
2023/04/21 05:27:17;;;;;;;18.10;4.90;;;14.70;99.90;;;16.77;53.32;101931.44;5029604;28;20049;-75
2023/04/21 05:29:43;;;;;;;9.25;2.67;;;15.10;99.90;;;17.49;51.51;101928.44;5025430;28;20122;-74
2023/04/21 05:32:11;;;;;;;16.75;4.53;;;15.30;99.90;;;17.95;51.50;101941.84;5020296;28;20071;-75
2023/04/21 05:34:39;;;;;;;13.95;4.15;;;15.90;99.90;;;18.39;49.40;101940.97;5005969;28;20025;-75
2023/04/21 05:37:05;;;;;;;17.23;4.20;;;15.70;99.90;;;17.76;50.83;101950.00;5001983;28;20127;-75
2023/04/21 05:39:30;;;;;;;10.35;3.65;;;16.10;99.90;;;18.80;49.00;101956.31;4988468;28;20541;-75
2023/04/21 05:41:57;;;;;;;11.45;3.15;;;16.20;99.90;;;18.51;48.52;101947.38;5002626;28;20036;-75
2023/04/21 05:44:24;;;;;;;14.95;3.78;;;16.30;99.90;;;19.04;48.32;101959.25;5030540;28;20445;-75
2023/04/21 05:46:50;;;;;;;13.90;3.60;;;16.50;99.90;;;19.18;47.39;101963.72;5021009;28;20044;-75
2023/04/21 05:49:20;;;;;;;12.02;3.25;;;16.60;99.90;;;18.84;47.21;101960.50;5011860;28;20041;-74
2023/04/21 05:51:46;;;;;;;15.68;4.10;;;16.80;99.90;;;19.62;46.99;101978.72;5009251;28;20029;-75
2023/04/21 05:54:12;;;;;;;20.33;4.40;;;17.10;99.90;;;20.13;46.14;101989.63;4996405;28;20059;-75
2023/04/21 05:56:37;;;;;;;13.15;3.63;;;17.60;99.90;;;20.71;44.51;101989.31;5035418;28;20087;-75
2023/04/21 05:59:05;;;;;;;11.90;3.78;;;17.80;99.90;;;21.00;44.56;102006.00;5021863;28;20021;-75
2023/04/21 06:01:36;;;;;;;10.52;3.47;;;18.40;99.90;;;21.76;43.28;102007.69;5008291;28;20041;-75
2023/04/21 06:04:02;;;;;;;17.40;3.95;;;18.60;99.90;;;21.18;43.23;102006.53;5010224;28;20062;-75
2023/04/21 06:06:28;;;;;;;15.07;3.90;;;18.80;99.90;;;21.39;43.10;102009.50;5006764;28;20174;-75
2023/04/21 06:08:53;;;;;;;15.45;3.97;;;18.80;99.90;;;21.12;43.34;102015.00;5027990;28;20501;-76
2023/04/21 06:11:20;;;;;;;14.75;3.80;;;18.60;99.90;;;19.92;44.92;101993.72;4998661;28;20032;-75
2023/04/21 06:13:45;;;;;;;11.30;3.67;;;18.40;99.90;;;20.63;44.58;102009.44;4995135;28;20033;-75
2023/04/21 06:16:11;;;;;;;15.90;3.67;;;18.50;99.90;;;20.99;43.32;102018.56;4988476;28;20163;-75
2023/04/21 06:18:37;;;;;;;18.95;4.10;;;18.90;99.90;;;20.82;43.40;102016.16;4996342;28;20027;-75
2023/04/21 06:21:03;;;;;;;9.93;3.65;;;18.60;99.90;;;18.26;46.71;101972.00;5020214;28;20056;-75
2023/04/21 06:23:29;;;;;;;10.80;3.80;;;18.00;99.90;;;18.00;48.44;101969.06;5013854;28;20386;-75
2023/04/21 06:26:04;;;;;;;8.98;3.58;;;17.50;99.90;;;17.35;49.18;101959.38;5020799;28;20114;-75
2023/04/21 06:28:34;;;;;;;16.60;3.55;;;16.80;99.90;;;16.06;51.08;101946.69;5004275;28;20115;-75
2023/04/21 06:31:01;;;;;;;13.68;3.55;;;16.30;99.90;;;15.67;52.14;101943.22;5018545;28;20033;-75
2023/04/21 06:33:28;;;;;;;14.98;4.05;;;16.00;99.90;;;15.23;54.23;101938.25;4986064;28;20546;-76
2023/04/21 06:35:55;;;;;;;9.77;3.58;;;15.90;99.90;;;15.46;55.13;101954.88;5003825;28;20025;-76
2023/04/21 06:38:21;;;;;;;13.07;3.65;;;15.70;99.90;;;16.33;53.64;101968.34;5027989;28;20121;-76
2023/04/21 06:40:47;;;;;;;10.20;3.60;;;16.30;99.90;;;18.25;49.65;101981.81;4971642;28;20054;-75
2023/04/21 06:43:13;;;;;;;8.32;3.42;;;17.00;99.90;;;18.95;48.60;101991.84;5016616;28;20044;-74
2023/04/21 06:45:39;;;;;;;11.55;3.90;;;17.30;99.90;;;18.74;47.89;101994.84;5017469;28;20037;-75
2023/04/21 06:48:05;;;;;;;7.60;2.90;;;17.80;99.90;;;18.60;47.49;101992.19;5030385;28;20393;-75
2023/04/21 06:50:31;;;;;;;13.10;4.10;;;18.40;99.90;;;20.18;46.38;102008.88;5026652;28;20036;-75
2023/04/21 06:52:56;;;;;;;15.95;3.88;;;19.50;99.90;;;21.83;43.94;102024.16;4989894;28;20078;-76
2023/04/21 06:55:25;;;;;;;6.75;3.30;;;20.00;98.80;;;20.17;44.38;102009.88;4995846;28;20055;-75
2023/04/21 06:57:50;;;;;;;10.73;3.38;;;20.00;99.10;;;20.79;44.75;102017.25;5001651;28;20045;-75
2023/04/21 07:00:17;;;;;;;14.00;3.67;;;20.50;98.60;;;21.49;43.63;102037.38;5002075;28;20074;-75
2023/04/21 07:02:42;;;;;;;11.70;3.63;;;20.90;97.70;;;21.34;43.68;102028.59;5015624;28;20041;-75
2023/04/21 07:05:08;;;;;;;9.40;3.53;;;21.20;96.90;;;21.59;42.76;102035.72;4991182;28;20040;-75
2023/04/21 07:07:34;;;;;;;9.38;4.03;;;21.30;96.00;;;21.52;42.74;102038.97;4990220;28;20041;-75
2023/04/21 07:10:00;;;;;;;9.50;3.85;;;21.40;96.80;;;21.41;43.13;102031.69;5018687;28;20052;-75
2023/04/21 07:12:28;;;;;;;10.50;3.53;;;21.80;96.30;;;22.27;42.17;102046.88;5014764;28;20172;-75
2023/04/21 07:14:54;;;;;;;12.48;3.88;;;22.00;95.20;;;21.30;42.97;102037.81;5014076;28;20494;-76
2023/04/21 07:17:20;;;;;;;8.88;3.25;;;22.40;95.70;;;22.91;41.17;102062.53;4991366;28;20049;-76
2023/04/21 07:19:46;;;;;;;11.00;4.25;;;22.70;94.60;;;22.78;41.12;102053.72;5014195;28;20140;-76
2023/04/21 07:22:12;;;;;;;11.45;3.45;;;23.00;94.50;;;23.03;41.24;102050.88;4992143;28;20120;-76
2023/04/21 07:24:38;;;;;;;14.85;3.60;;;23.60;93.90;;;24.02;39.96;102062.66;5011553;28;20037;-76
2023/04/21 07:27:04;;;;;;;10.75;3.80;;;23.70;93.20;;;23.57;39.89;102062.72;4998935;28;20441;-76
2023/04/21 07:29:30;;;;;;;9.85;3.83;;;23.30;92.20;;;22.32;41.14;102042.84;5043212;28;20055;-76
2023/04/21 07:31:57;;;;;;;13.43;3.70;;;23.20;92.70;;;22.28;41.54;102051.25;5018651;28;20045;-75
2023/04/21 07:34:24;;;;;;;13.70;3.55;;;23.30;92.80;;;22.95;40.85;102061.31;5007666;28;20033;-76
2023/04/21 07:36:51;;;;;;;12.15;4.05;;;23.80;92.70;;;23.48;39.49;102067.00;5014216;28;20058;-76
2023/04/21 07:39:17;;;;;;;8.95;3.38;;;23.60;92.40;;;22.25;41.38;102056.84;5016743;28;20045;-76
2023/04/21 07:41:43;;;;;;;14.60;3.75;;;23.90;93.20;;;23.41;40.82;102055.03;4994560;28;20150;-76
2023/04/21 07:44:09;;;;;;;11.35;4.18;;;24.20;92.30;;;23.74;40.02;102066.72;4983067;28;20033;-76
2023/04/21 07:46:40;;;;;;;13.65;3.97;;;24.40;91.60;;;23.75;39.81;102063.94;4997773;28;20435;-75
2023/04/21 07:49:05;;;;;;;11.05;4.03;;;24.60;91.20;;;23.42;39.40;102050.50;4986686;28;20045;-75
2023/04/21 07:51:31;;;;;;;8.93;4.05;;;24.50;91.20;;;23.30;40.62;102055.91;5026415;28;20038;-75
2023/04/21 07:53:57;;;;;;;12.60;4.57;;;24.70;90.00;;;23.70;39.30;102057.19;5001938;28;20037;-76
2023/04/21 07:56:23;;;;;;;10.05;4.03;;;24.50;90.90;;;23.22;40.12;102052.06;5034531;28;21246;-76
2023/04/21 07:58:49;;;;;;;9.32;3.90;;;24.10;90.50;;;22.71;40.39;102043.44;5009488;28;20069;-76
2023/04/21 08:01:14;;;;;;;10.93;3.70;;;23.90;90.20;;;22.10;40.37;102040.06;5017064;28;20040;-76
2023/04/21 08:03:42;;;;;;;12.70;3.78;;;23.30;91.50;;;21.84;41.72;102028.59;5011200;28;20056;-76
2023/04/21 08:06:08;;;;;;;10.18;4.00;;;23.10;91.50;;;21.57;42.75;102024.25;4991628;28;20041;-77
2023/04/21 08:08:34;;;;;;;14.48;4.20;;;23.00;92.80;;;21.76;43.01;102033.66;5042859;28;20034;-75
2023/04/21 08:11:00;;;;;;;11.75;4.13;;;22.70;92.60;;;21.40;42.98;102030.78;4998061;28;20037;-75
2023/04/21 08:13:26;;;;;;;15.25;4.45;;;22.50;92.80;;;21.15;43.42;102028.19;5004698;28;20033;-76
2023/04/21 08:15:52;;;;;;;11.32;4.40;;;22.30;92.10;;;21.02;43.19;102029.03;5020527;28;20021;-76
2023/04/21 08:18:18;;;;;;;11.50;4.20;;;22.10;92.60;;;20.49;43.68;102014.81;5010489;28;20493;-76
2023/04/21 08:20:48;;;;;;;11.60;4.22;;;22.20;93.30;;;21.18;43.45;102027.94;5021157;28;20032;-75
2023/04/21 08:23:15;;;;;;;11.80;4.10;;;22.20;93.30;;;21.31;43.49;102024.28;5020961;28;20457;-76
2023/04/21 08:25:41;;;;;;;11.43;4.18;;;22.50;93.60;;;21.81;42.86;102026.97;4978771;28;20040;-75
2023/04/21 08:28:07;;;;;;;10.35;3.83;;;22.30;92.60;;;20.90;43.74;102019.19;5005197;28;20063;-76
2023/04/21 08:30:32;;;;;;;14.55;4.70;;;21.90;93.30;;;20.15;45.31;102003.75;5011139;28;20036;-76
2023/04/21 08:32:58;;;;;;;12.25;4.45;;;21.70;93.70;;;20.42;44.99;102011.72;5028476;28;20041;-75
2023/04/21 08:35:27;;;;;;;12.70;4.45;;;21.30;94.50;;;20.07;45.74;101998.06;5005137;28;20029;-75
2023/04/21 08:37:53;;;;;;;8.88;4.38;;;21.30;94.20;;;20.37;44.90;102002.31;5023124;28;20040;-77
2023/04/21 08:40:19;;;;;;;11.68;3.95;;;21.20;95.10;;;20.36;45.96;102006.78;5018174;28;20059;-76
2023/04/21 08:42:45;;;;;;;11.32;4.05;;;20.90;94.50;;;19.68;46.12;101994.34;4997409;28;20029;-76
2023/04/21 08:45:11;;;;;;;13.07;4.47;;;20.90;96.10;;;20.00;47.40;101988.72;5015715;28;20499;-76
2023/04/21 08:47:43;;;;;;;15.23;4.35;;;20.70;96.10;;;19.71;47.04;101991.50;5015201;28;20075;-76
2023/04/21 08:50:13;;;;;;;13.80;4.75;;;20.40;96.40;;;19.40;48.00;101973.91;5001528;28;20717;-76
2023/04/21 08:52:39;;;;;;;8.73;3.88;;;20.20;95.90;;;19.08;47.75;101975.94;5020983;28;20037;-75
2023/04/21 08:55:06;;;;;;;11.50;3.90;;;19.90;96.40;;;18.74;48.51;101965.50;5000431;28;20729;-76
2023/04/21 08:57:32;;;;;;;14.45;4.70;;;19.60;97.30;;;18.68;49.61;101957.00;5001162;28;20072;-76
2023/04/21 09:00:00;;;;;;;11.63;4.50;;;19.50;96.90;;;18.18;49.55;101961.78;5018788;28;20040;-75
2023/04/21 09:02:26;;;;;;;12.88;4.57;;;19.10;97.30;;;17.55;51.09;101955.56;5030413;28;20033;-76
2023/04/21 09:04:54;;;;;;;14.93;4.50;;;18.70;98.40;;;17.24;52.75;101944.94;5010364;28;20040;-75
2023/04/21 09:07:35;;;;;;;10.80;3.95;;;18.30;98.10;;;16.88;52.89;101951.31;5015139;28;20044;-76
2023/04/21 09:10:04;;;;;;;10.63;3.90;;;18.20;99.70;;;17.12;53.63;101941.16;5032897;28;20044;-75
2023/04/21 09:12:30;;;;;;;13.07;4.40;;;17.90;98.90;;;16.72;53.20;101948.59;5019178;28;20045;-76
2023/04/21 09:15:03;;;;;;;16.48;4.47;;;17.80;99.80;;;16.58;54.00;101933.34;5003834;28;20041;-75
2023/04/21 09:17:32;;;;;;;17.02;4.25;;;17.50;99.60;;;16.22;54.55;101934.34;5008758;28;20529;-76
2023/04/21 09:20:20;;;;;;;10.10;4.75;;;17.60;99.90;;;16.48;55.08;101940.09;5019278;28;20202;-75
2023/04/21 09:22:55;;;;;;;12.13;4.63;;;17.50;99.90;;;16.44;55.66;101938.56;5012755;28;20098;-77
2023/04/21 09:25:22;;;;;;;9.15;4.65;;;17.60;99.90;;;16.63;54.94;101941.97;4999974;28;20040;-75
2023/04/21 09:27:48;;;;;;;11.55;4.30;;;17.60;99.90;;;16.45;54.23;101933.13;5005664;28;20033;-76
2023/04/21 09:30:21;;;;;;;10.75;4.30;;;17.50;99.90;;;16.39;54.71;101933.44;5005378;28;20069;-76
2023/04/21 09:32:48;;;;;;;12.20;4.78;;;17.60;99.90;;;16.56;55.31;101928.09;5013956;28;20037;-75
2023/04/21 09:35:17;;;;;;;14.30;4.28;;;17.50;99.90;;;16.49;55.23;101926.72;5022171;28;20036;-75
2023/04/21 09:37:49;;;;;;;10.88;4.68;;;17.50;99.90;;;16.20;55.20;101920.28;5024265;28;20039;-76
2023/04/21 09:40:18;;;;;;;12.48;4.43;;;17.50;99.90;;;16.41;55.27;101920.94;5027321;28;20045;-75
2023/04/21 09:42:44;;;;;;;9.88;3.90;;;17.60;99.90;;;16.42;54.73;101929.81;5019524;28;20044;-75
2023/04/21 09:45:17;;;;;;;10.63;4.25;;;17.60;99.90;;;16.67;55.42;101919.56;4981863;28;20042;-76
2023/04/21 09:47:49;;;;;;;11.50;4.38;;;17.60;99.90;;;16.55;54.56;101917.56;4964228;28;20747;-75
2023/04/21 09:50:26;;;;;;;13.40;4.50;;;17.70;99.90;;;16.73;54.26;101907.75;4998430;28;20045;-74
2023/04/21 09:52:56;;;;;;;12.32;4.90;;;17.70;99.90;;;16.83;54.58;101916.13;4994235;28;20498;-76
2023/04/21 09:55:29;;;;;;;11.27;3.55;;;17.60;99.70;;;16.17;53.73;101910.63;4984629;28;20509;-75
2023/04/21 09:58:01;;;;;;;12.45;4.72;;;17.60;99.90;;;16.50;54.86;101907.19;4988057;28;20080;-76
2023/04/21 10:00:38;;;;;;;9.65;4.35;;;17.40;99.90;;;16.18;54.76;101899.09;5011266;28;20144;-75
2023/04/21 10:03:14;;;;;;;13.57;5.18;;;17.30;99.90;;;16.15;55.17;101891.25;5029988;28;20079;-75
2023/04/21 10:05:44;;;;;;;9.98;4.20;;;17.30;99.90;;;16.47;55.56;101896.69;5004066;28;20399;-76
2023/04/21 10:08:11;;;;;;;9.80;4.65;;;17.60;99.90;;;16.69;56.29;101885.78;5004845;28;20559;-75
2023/04/21 10:10:38;;;;;;;15.50;4.78;;;17.60;99.90;;;16.53;55.24;101890.22;5002563;28;20029;-75
2023/04/21 10:13:06;;;;;;;10.48;4.50;;;17.40;99.90;;;16.25;55.08;101891.66;5015778;28;20124;-75